sensor_id;sensor_type;location;lat;lon;timestamp;pressure;altitude;pressure_sealevel;temperature;humidity
3780;BME280;1905;52.482;9.802;2023-05-22T00:01:38;101042.50;;;21.07;59.65
3780;BME280;1905;52.482;9.802;2023-05-22T00:04:08;101054.47;;;21.03;59.31
3780;BME280;1905;52.482;9.802;2023-05-22T00:06:35;101043.25;;;20.98;59.93
3780;BME280;1905;52.482;9.802;2023-05-22T00:09:03;101044.34;;;20.95;59.69
3780;BME280;1905;52.482;9.802;2023-05-22T00:11:32;101043.75;;;20.92;59.69
3780;BME280;1905;52.482;9.802;2023-05-22T00:14:01;101036.91;;;20.88;59.70
3780;BME280;1905;52.482;9.802;2023-05-22T00:16:29;101042.50;;;20.85;59.96
3780;BME280;1905;52.482;9.802;2023-05-22T00:18:57;101042.78;;;20.82;59.85
3780;BME280;1905;52.482;9.802;2023-05-22T00:21:26;101036.91;;;20.76;60.16
3780;BME280;1905;52.482;9.802;2023-05-22T00:23:54;101034.50;;;20.73;59.83
3780;BME280;1905;52.482;9.802;2023-05-22T00:26:21;101030.19;;;20.71;59.47
3780;BME280;1905;52.482;9.802;2023-05-22T00:28:50;101026.78;;;20.69;59.90
3780;BME280;1905;52.482;9.802;2023-05-22T00:31:18;101026.06;;;20.67;59.95
3780;BME280;1905;52.482;9.802;2023-05-22T00:33:47;101027.41;;;20.61;60.02
3780;BME280;1905;52.482;9.802;2023-05-22T00:36:14;101036.56;;;20.59;59.86
3780;BME280;1905;52.482;9.802;2023-05-22T00:38:44;101026.06;;;20.56;60.07
3780;BME280;1905;52.482;9.802;2023-05-22T00:41:11;101025.44;;;20.52;60.10
3780;BME280;1905;52.482;9.802;2023-05-22T00:43:39;101024.47;;;20.53;59.70
3780;BME280;1905;52.482;9.802;2023-05-22T00:46:08;101020.59;;;20.46;59.97
3780;BME280;1905;52.482;9.802;2023-05-22T00:48:37;101021.66;;;20.44;60.17
3780;BME280;1905;52.482;9.802;2023-05-22T00:51:05;101020.81;;;20.43;60.30
3780;BME280;1905;52.482;9.802;2023-05-22T00:53:33;101013.97;;;20.39;60.37
3780;BME280;1905;52.482;9.802;2023-05-22T00:56:02;101014.22;;;20.36;60.04
3780;BME280;1905;52.482;9.802;2023-05-22T00:58:29;101014.22;;;20.36;60.17
3780;BME280;1905;52.482;9.802;2023-05-22T01:00:57;101007.28;;;20.34;60.33
3780;BME280;1905;52.482;9.802;2023-05-22T01:03:28;101012.16;;;20.29;60.20
3780;BME280;1905;52.482;9.802;2023-05-22T01:05:57;101007.66;;;20.29;59.96
3780;BME280;1905;52.482;9.802;2023-05-22T01:08:25;101002.66;;;20.25;60.37
3780;BME280;1905;52.482;9.802;2023-05-22T01:10:56;101010.03;;;20.21;60.35
3780;BME280;1905;52.482;9.802;2023-05-22T01:13:30;101004.91;;;20.18;60.31
3780;BME280;1905;52.482;9.802;2023-05-22T01:16:06;101001.28;;;20.19;60.07
3780;BME280;1905;52.482;9.802;2023-05-22T01:18:42;100994.66;;;20.12;60.37
3780;BME280;1905;52.482;9.802;2023-05-22T01:21:17;101002.69;;;20.12;60.36
3780;BME280;1905;52.482;9.802;2023-05-22T01:24:05;101000.25;;;20.09;60.60
3780;BME280;1905;52.482;9.802;2023-05-22T01:27:10;100996.84;;;20.07;60.34
3780;BME280;1905;52.482;9.802;2023-05-22T01:29:45;101002.69;;;20.01;60.64
3780;BME280;1905;52.482;9.802;2023-05-22T01:32:20;100994.63;;;20.01;60.03
3780;BME280;1905;52.482;9.802;2023-05-22T01:34:52;100997.78;;;19.95;60.46
3780;BME280;1905;52.482;9.802;2023-05-22T01:37:20;101003.16;;;19.95;60.45
3780;BME280;1905;52.482;9.802;2023-05-22T01:39:51;100999.75;;;19.93;60.26
3780;BME280;1905;52.482;9.802;2023-05-22T01:42:19;101006.19;;;19.90;60.66
3780;BME280;1905;52.482;9.802;2023-05-22T01:44:47;101005.34;;;19.90;60.70
3780;BME280;1905;52.482;9.802;2023-05-22T01:47:16;100994.84;;;19.87;60.46
3780;BME280;1905;52.482;9.802;2023-05-22T01:49:44;100995.13;;;19.84;60.68
3780;BME280;1905;52.482;9.802;2023-05-22T01:52:18;100995.34;;;19.81;60.75
3780;BME280;1905;52.482;9.802;2023-05-22T01:54:52;100994.59;;;19.79;60.41
3780;BME280;1905;52.482;9.802;2023-05-22T01:57:26;100996.66;;;19.75;60.66
3780;BME280;1905;52.482;9.802;2023-05-22T01:59:59;100993.22;;;19.73;60.96
3780;BME280;1905;52.482;9.802;2023-05-22T02:02:50;100990.69;;;19.72;60.73
3780;BME280;1905;52.482;9.802;2023-05-22T02:05:22;100979.22;;;19.70;60.81
3780;BME280;1905;52.482;9.802;2023-05-22T02:07:52;100987.28;;;19.70;60.51
3780;BME280;1905;52.482;9.802;2023-05-22T02:10:24;100980.41;;;19.66;60.68
3780;BME280;1905;52.482;9.802;2023-05-22T02:12:54;100980.66;;;19.63;60.95
3780;BME280;1905;52.482;9.802;2023-05-22T02:15:22;100980.66;;;19.63;60.48
3780;BME280;1905;52.482;9.802;2023-05-22T02:17:51;100978.19;;;19.59;60.77
3780;BME280;1905;52.482;9.802;2023-05-22T02:20:19;100973.09;;;19.56;60.25
3780;BME280;1905;52.482;9.802;2023-05-22T02:22:46;100979.66;;;19.52;60.80
3780;BME280;1905;52.482;9.802;2023-05-22T02:25:15;100973.66;;;19.49;60.91
3780;BME280;1905;52.482;9.802;2023-05-22T02:27:45;100973.91;;;19.46;60.98
3780;BME280;1905;52.482;9.802;2023-05-22T02:30:16;100973.91;;;19.46;60.84
3780;BME280;1905;52.482;9.802;2023-05-22T02:32:47;100974.16;;;19.43;60.95
3780;BME280;1905;52.482;9.802;2023-05-22T02:35:17;100975.25;;;19.40;60.87
3780;BME280;1905;52.482;9.802;2023-05-22T02:37:45;100975.25;;;19.40;60.75
3780;BME280;1905;52.482;9.802;2023-05-22T02:40:12;100971.81;;;19.38;61.03
3780;BME280;1905;52.482;9.802;2023-05-22T02:42:40;100970.31;;;19.34;61.13
3780;BME280;1905;52.482;9.802;2023-05-22T02:45:09;100966.88;;;19.32;61.04
3780;BME280;1905;52.482;9.802;2023-05-22T02:47:37;100965.19;;;19.31;60.73
3780;BME280;1905;52.482;9.802;2023-05-22T02:50:05;100962.00;;;19.26;60.96
3780;BME280;1905;52.482;9.802;2023-05-22T02:52:35;100964.78;;;19.25;61.10
3780;BME280;1905;52.482;9.802;2023-05-22T02:55:05;100967.59;;;19.23;61.13
3780;BME280;1905;52.482;9.802;2023-05-22T02:57:34;100958.06;;;19.19;60.67
3780;BME280;1905;52.482;9.802;2023-05-22T03:00:02;100960.13;;;19.16;61.19
3780;BME280;1905;52.482;9.802;2023-05-22T03:02:30;100961.22;;;19.13;61.22
3780;BME280;1905;52.482;9.802;2023-05-22T03:04:58;100950.72;;;19.10;61.27
3780;BME280;1905;52.482;9.802;2023-05-22T03:07:26;100953.84;;;19.04;61.33
3780;BME280;1905;52.482;9.802;2023-05-22T03:09:56;100945.81;;;19.04;61.35
3780;BME280;1905;52.482;9.802;2023-05-22T03:12:23;100948.72;;;19.01;61.37
3780;BME280;1905;52.482;9.802;2023-05-22T03:14:51;100950.66;;;18.99;61.32
3780;BME280;1905;52.482;9.802;2023-05-22T03:17:19;100949.91;;;18.97;61.16
3780;BME280;1905;52.482;9.802;2023-05-22T03:19:46;100953.66;;;18.94;61.44
3780;BME280;1905;52.482;9.802;2023-05-22T03:22:14;100950.59;;;18.88;61.56
3780;BME280;1905;52.482;9.802;2023-05-22T03:24:44;100948.88;;;18.87;61.26
3780;BME280;1905;52.482;9.802;2023-05-22T03:27:13;100955.22;;;18.86;61.36
3780;BME280;1905;52.482;9.802;2023-05-22T03:29:48;100958.13;;;18.83;61.67
3780;BME280;1905;52.482;9.802;2023-05-22T03:32:16;100951.06;;;18.82;61.43
3780;BME280;1905;52.482;9.802;2023-05-22T03:34:45;100954.94;;;18.78;61.77
3780;BME280;1905;52.482;9.802;2023-05-22T03:37:12;100956.84;;;18.76;61.50
3780;BME280;1905;52.482;9.802;2023-05-22T03:39:40;100955.16;;;18.75;61.79
3780;BME280;1905;52.482;9.802;2023-05-22T03:42:21;100950.03;;;18.72;61.74
3780;BME280;1905;52.482;9.802;2023-05-22T03:44:49;100963.41;;;18.72;61.57
3780;BME280;1905;52.482;9.802;2023-05-22T03:47:17;100964.56;;;18.68;61.80
3780;BME280;1905;52.482;9.802;2023-05-22T03:49:45;100961.16;;;18.66;61.67
3780;BME280;1905;52.482;9.802;2023-05-22T03:52:12;100963.09;;;18.64;61.52
3780;BME280;1905;52.482;9.802;2023-05-22T03:54:40;100954.31;;;18.62;61.64
3780;BME280;1905;52.482;9.802;2023-05-22T03:57:08;100953.56;;;18.60;61.74
3780;BME280;1905;52.482;9.802;2023-05-22T03:59:36;100954.56;;;18.59;62.02
3780;BME280;1905;52.482;9.802;2023-05-22T04:02:04;100958.31;;;18.56;61.78
3780;BME280;1905;52.482;9.802;2023-05-22T04:04:32;100953.91;;;18.55;61.88
3780;BME280;1905;52.482;9.802;2023-05-22T04:07:04;100949.66;;;18.53;62.01
3780;BME280;1905;52.482;9.802;2023-05-22T04:09:34;100954.13;;;18.52;61.76
3780;BME280;1905;52.482;9.802;2023-05-22T04:12:02;100956.69;;;18.54;61.96
3780;BME280;1905;52.482;9.802;2023-05-22T04:14:30;100956.94;;;18.51;61.77
3780;BME280;1905;52.482;9.802;2023-05-22T04:16:59;100951.59;;;18.51;61.97
3780;BME280;1905;52.482;9.802;2023-05-22T04:19:27;100956.94;;;18.51;61.84
3780;BME280;1905;52.482;9.802;2023-05-22T04:21:56;100955.22;;;18.50;61.86
3780;BME280;1905;52.482;9.802;2023-05-22T04:24:24;100958.84;;;18.49;61.65
3780;BME280;1905;52.482;9.802;2023-05-22T04:26:52;100960.56;;;18.50;61.98
3780;BME280;1905;52.482;9.802;2023-05-22T04:29:20;100959.84;;;18.48;61.70
3780;BME280;1905;52.482;9.802;2023-05-22T04:31:48;100964.09;;;18.50;61.78
3780;BME280;1905;52.482;9.802;2023-05-22T04:34:17;100968.69;;;18.48;61.75
3780;BME280;1905;52.482;9.802;2023-05-22T04:36:44;100966.88;;;18.49;61.94
3780;BME280;1905;52.482;9.802;2023-05-22T04:39:13;100959.03;;;18.45;61.87
3780;BME280;1905;52.482;9.802;2023-05-22T04:41:41;100965.19;;;18.48;62.05
3780;BME280;1905;52.482;9.802;2023-05-22T04:44:08;100964.19;;;18.49;61.88
3780;BME280;1905;52.482;9.802;2023-05-22T04:46:36;100965.91;;;18.50;61.77
3780;BME280;1905;52.482;9.802;2023-05-22T04:49:04;100966.00;;;18.48;61.91
3780;BME280;1905;52.482;9.802;2023-05-22T04:51:33;100963.44;;;18.47;61.81
3780;BME280;1905;52.482;9.802;2023-05-22T04:54:00;100965.91;;;18.50;61.77
3780;BME280;1905;52.482;9.802;2023-05-22T04:56:28;100962.28;;;18.51;61.57
3780;BME280;1905;52.482;9.802;2023-05-22T04:59:03;100962.28;;;18.51;61.73
3780;BME280;1905;52.482;9.802;2023-05-22T05:01:34;100958.63;;;18.52;61.55
3780;BME280;1905;52.482;9.802;2023-05-22T05:04:03;100962.91;;;18.54;61.75
3780;BME280;1905;52.482;9.802;2023-05-22T05:06:32;100955.66;;;18.56;61.61
3780;BME280;1905;52.482;9.802;2023-05-22T05:09:01;100951.03;;;18.58;61.62
3780;BME280;1905;52.482;9.802;2023-05-22T05:11:29;100960.53;;;18.62;61.57
3780;BME280;1905;52.482;9.802;2023-05-22T05:13:56;100956.03;;;18.63;61.62
3780;BME280;1905;52.482;9.802;2023-05-22T05:16:24;100956.69;;;18.66;61.65
3780;BME280;1905;52.482;9.802;2023-05-22T05:18:52;100958.28;;;18.69;61.41
3780;BME280;1905;52.482;9.802;2023-05-22T05:21:21;100953.66;;;18.71;61.43
3780;BME280;1905;52.482;9.802;2023-05-22T05:23:51;100947.13;;;18.75;61.52
3780;BME280;1905;52.482;9.802;2023-05-22T05:26:18;100953.22;;;18.77;61.46
3780;BME280;1905;52.482;9.802;2023-05-22T05:28:49;100953.00;;;18.80;61.94
3780;BME280;1905;52.482;9.802;2023-05-22T05:31:17;100956.41;;;18.82;61.79
3780;BME280;1905;52.482;9.802;2023-05-22T05:34:08;100947.41;;;18.83;61.64
3780;BME280;1905;52.482;9.802;2023-05-22T05:36:54;100962.19;;;18.88;61.28
3780;BME280;1905;52.482;9.802;2023-05-22T05:39:24;100954.00;;;18.90;61.39
3780;BME280;1905;52.482;9.802;2023-05-22T05:41:51;100958.41;;;18.91;61.61
3780;BME280;1905;52.482;9.802;2023-05-22T05:44:19;100958.94;;;18.96;61.42
3780;BME280;1905;52.482;9.802;2023-05-22T05:46:47;100945.19;;;19.00;61.22
3780;BME280;1905;52.482;9.802;2023-05-22T05:49:18;100949.44;;;19.03;61.83
3780;BME280;1905;52.482;9.802;2023-05-22T05:51:46;100951.81;;;19.08;61.19
3780;BME280;1905;52.482;9.802;2023-05-22T05:54:15;100959.50;;;19.12;61.09
3780;BME280;1905;52.482;9.802;2023-05-22T05:56:45;100952.91;;;19.16;60.95
3780;BME280;1905;52.482;9.802;2023-05-22T05:59:13;100957.94;;;19.21;60.64
3780;BME280;1905;52.482;9.802;2023-05-22T06:01:57;100951.50;;;19.23;61.01
3780;BME280;1905;52.482;9.802;2023-05-22T06:04:28;100953.97;;;19.26;60.99
3780;BME280;1905;52.482;9.802;2023-05-22T06:06:56;100947.38;;;19.30;61.07
3780;BME280;1905;52.482;9.802;2023-05-22T06:09:28;100947.06;;;19.35;61.32
3780;BME280;1905;52.482;9.802;2023-05-22T06:12:09;100945.22;;;19.35;61.20
3780;BME280;1905;52.482;9.802;2023-05-22T06:14:42;100944.78;;;19.41;61.56
3780;BME280;1905;52.482;9.802;2023-05-22T06:17:10;100955.28;;;19.44;61.43
3780;BME280;1905;52.482;9.802;2023-05-22T06:19:43;100938.72;;;19.50;61.04
3780;BME280;1905;52.482;9.802;2023-05-22T06:22:12;100950.69;;;19.57;60.81
3780;BME280;1905;52.482;9.802;2023-05-22T06:24:42;100946.81;;;19.62;61.09
3780;BME280;1905;52.482;9.802;2023-05-22T06:27:16;100944.84;;;19.64;61.46
3780;BME280;1905;52.482;9.802;2023-05-22T06:29:43;100944.97;;;19.73;60.81
3780;BME280;1905;52.482;9.802;2023-05-22T06:32:11;100946.59;;;19.76;60.75
3780;BME280;1905;52.482;9.802;2023-05-22T06:34:41;100941.72;;;19.81;60.95
3780;BME280;1905;52.482;9.802;2023-05-22T06:37:13;100942.94;;;19.88;60.71
3780;BME280;1905;52.482;9.802;2023-05-22T06:39:43;100948.81;;;19.93;60.27
3780;BME280;1905;52.482;9.802;2023-05-22T06:42:26;100950.78;;;20.02;59.97
3780;BME280;1905;52.482;9.802;2023-05-22T06:45:19;100956.63;;;20.07;59.86
3780;BME280;1905;52.482;9.802;2023-05-22T06:48:19;100955.41;;;20.11;60.19
3780;BME280;1905;52.482;9.802;2023-05-22T06:51:05;100956.63;;;20.18;60.69
3780;BME280;1905;52.482;9.802;2023-05-22T06:53:35;100954.44;;;20.23;60.21
3780;BME280;1905;52.482;9.802;2023-05-22T06:56:07;100956.19;;;20.24;59.87
3780;BME280;1905;52.482;9.802;2023-05-22T06:58:51;100958.88;;;20.35;59.70
3780;BME280;1905;52.482;9.802;2023-05-22T07:01:21;100958.13;;;20.44;59.81
3780;BME280;1905;52.482;9.802;2023-05-22T07:04:02;100957.63;;;20.50;59.54
3780;BME280;1905;52.482;9.802;2023-05-22T07:06:34;100963.00;;;20.50;60.00
3780;BME280;1905;52.482;9.802;2023-05-22T07:09:05;100962.50;;;20.56;59.13
3780;BME280;1905;52.482;9.802;2023-05-22T07:11:33;100957.38;;;20.64;59.21
3780;BME280;1905;52.482;9.802;2023-05-22T07:14:02;100959.56;;;20.70;59.23
3780;BME280;1905;52.482;9.802;2023-05-22T07:16:29;100949.31;;;20.75;59.32
3780;BME280;1905;52.482;9.802;2023-05-22T07:18:58;100951.75;;;20.78;59.26
3780;BME280;1905;52.482;9.802;2023-05-22T07:21:25;100948.66;;;20.83;59.08
3780;BME280;1905;52.482;9.802;2023-05-22T07:23:56;100948.75;;;20.93;59.19
3780;BME280;1905;52.482;9.802;2023-05-22T07:26:23;100952.66;;;21.00;58.95
3780;BME280;1905;52.482;9.802;2023-05-22T07:29:02;100947.53;;;21.08;59.31
3780;BME280;1905;52.482;9.802;2023-05-22T07:31:31;100951.88;;;21.20;58.87
3780;BME280;1905;52.482;9.802;2023-05-22T07:34:00;100947.97;;;21.24;59.02
3780;BME280;1905;52.482;9.802;2023-05-22T07:36:29;100946.34;;;21.32;59.05
3780;BME280;1905;52.482;9.802;2023-05-22T07:38:57;100946.66;;;21.39;58.53
3780;BME280;1905;52.482;9.802;2023-05-22T07:41:24;100948.06;;;21.54;58.26
3780;BME280;1905;52.482;9.802;2023-05-22T07:43:52;100940.19;;;21.62;58.66
3780;BME280;1905;52.482;9.802;2023-05-22T07:46:27;100942.94;;;21.72;58.16
3780;BME280;1905;52.482;9.802;2023-05-22T07:49:00;100943.00;;;21.81;57.76
3780;BME280;1905;52.482;9.802;2023-05-22T07:51:28;100943.22;;;21.89;58.47
3780;BME280;1905;52.482;9.802;2023-05-22T07:53:56;100937.78;;;22.01;57.61
3780;BME280;1905;52.482;9.802;2023-05-22T07:56:29;100933.69;;;22.06;57.74
3780;BME280;1905;52.482;9.802;2023-05-22T07:58:58;100941.25;;;22.22;57.43
3780;BME280;1905;52.482;9.802;2023-05-22T08:01:27;100944.56;;;22.35;57.60
3780;BME280;1905;52.482;9.802;2023-05-22T08:03:55;100941.06;;;22.44;57.50
3780;BME280;1905;52.482;9.802;2023-05-22T08:06:23;100947.78;;;22.59;57.57
3780;BME280;1905;52.482;9.802;2023-05-22T08:08:50;100936.66;;;22.73;56.81
3780;BME280;1905;52.482;9.802;2023-05-22T08:11:20;100935.84;;;22.82;57.13
3780;BME280;1905;52.482;9.802;2023-05-22T08:13:47;100938.69;;;22.90;56.94
3780;BME280;1905;52.482;9.802;2023-05-22T08:16:15;100937.25;;;23.05;57.32
3780;BME280;1905;52.482;9.802;2023-05-22T08:18:44;100946.19;;;23.16;57.28
3780;BME280;1905;52.482;9.802;2023-05-22T08:21:11;100945.09;;;23.28;57.99
3780;BME280;1905;52.482;9.802;2023-05-22T08:23:39;100943.56;;;23.44;57.04
3780;BME280;1905;52.482;9.802;2023-05-22T08:26:07;100941.41;;;23.57;57.18
3780;BME280;1905;52.482;9.802;2023-05-22T08:28:35;100930.50;;;23.59;56.13
3780;BME280;1905;52.482;9.802;2023-05-22T08:31:07;100939.13;;;23.72;55.97
3780;BME280;1905;52.482;9.802;2023-05-22T08:33:34;100927.28;;;23.92;57.73
3780;BME280;1905;52.482;9.802;2023-05-22T08:36:04;100927.13;;;24.13;57.69
3780;BME280;1905;52.482;9.802;2023-05-22T08:38:32;100919.22;;;24.29;58.12
3780;BME280;1905;52.482;9.802;2023-05-22T08:41:00;100929.97;;;24.39;55.97
3780;BME280;1905;52.482;9.802;2023-05-22T08:43:28;100921.97;;;24.47;55.13
3780;BME280;1905;52.482;9.802;2023-05-22T08:45:59;100915.59;;;24.65;57.58
3780;BME280;1905;52.482;9.802;2023-05-22T08:48:29;100913.84;;;24.74;55.49
3780;BME280;1905;52.482;9.802;2023-05-22T08:51:01;100911.91;;;24.94;57.57
3780;BME280;1905;52.482;9.802;2023-05-22T08:53:33;100905.09;;;25.07;57.40
3780;BME280;1905;52.482;9.802;2023-05-22T08:56:01;100910.41;;;25.17;55.53
3780;BME280;1905;52.482;9.802;2023-05-22T08:58:35;100907.03;;;25.32;54.29
3780;BME280;1905;52.482;9.802;2023-05-22T09:01:04;100902.38;;;25.42;55.09
3780;BME280;1905;52.482;9.802;2023-05-22T09:03:33;100903.47;;;25.50;55.77
3780;BME280;1905;52.482;9.802;2023-05-22T09:06:02;100900.69;;;25.59;54.97
3780;BME280;1905;52.482;9.802;2023-05-22T09:08:37;100907.50;;;25.71;53.68
3780;BME280;1905;52.482;9.802;2023-05-22T09:11:05;100906.44;;;25.82;54.20
3780;BME280;1905;52.482;9.802;2023-05-22T09:13:32;100899.19;;;25.90;54.29
3780;BME280;1905;52.482;9.802;2023-05-22T09:16:07;100895.16;;;25.94;52.53
3780;BME280;1905;52.482;9.802;2023-05-22T09:18:35;100889.94;;;26.01;54.05
3780;BME280;1905;52.482;9.802;2023-05-22T09:21:04;100890.69;;;26.11;52.79
3780;BME280;1905;52.482;9.802;2023-05-22T09:23:41;100890.25;;;26.24;53.51
3780;BME280;1905;52.482;9.802;2023-05-22T09:26:08;100886.03;;;26.21;52.77
3780;BME280;1905;52.482;9.802;2023-05-22T09:28:36;100890.47;;;26.30;52.42
3780;BME280;1905;52.482;9.802;2023-05-22T09:31:04;100889.00;;;26.44;53.00
3780;BME280;1905;52.482;9.802;2023-05-22T09:33:35;100887.97;;;26.45;51.59
3780;BME280;1905;52.482;9.802;2023-05-22T09:36:03;100883.75;;;26.50;52.13
3780;BME280;1905;52.482;9.802;2023-05-22T09:38:35;100888.53;;;26.56;51.68
3780;BME280;1905;52.482;9.802;2023-05-22T09:41:04;100885.50;;;26.59;51.44
3780;BME280;1905;52.482;9.802;2023-05-22T09:43:34;100879.75;;;26.63;51.53
3780;BME280;1905;52.482;9.802;2023-05-22T09:46:02;100870.75;;;26.62;50.46
3780;BME280;1905;52.482;9.802;2023-05-22T09:48:32;100870.56;;;26.63;51.11
3780;BME280;1905;52.482;9.802;2023-05-22T09:51:01;100874.66;;;26.59;51.23
3780;BME280;1905;52.482;9.802;2023-05-22T09:53:31;100879.41;;;26.66;51.45
3780;BME280;1905;52.482;9.802;2023-05-22T09:56:00;100873.78;;;26.59;50.35
3780;BME280;1905;52.482;9.802;2023-05-22T09:58:32;100877.19;;;26.61;51.57
3780;BME280;1905;52.482;9.802;2023-05-22T10:01:02;100870.25;;;26.67;51.58
3780;BME280;1905;52.482;9.802;2023-05-22T10:03:30;100874.31;;;26.63;50.70
3780;BME280;1905;52.482;9.802;2023-05-22T10:06:01;100872.63;;;26.70;51.73
3780;BME280;1905;52.482;9.802;2023-05-22T10:08:34;100862.13;;;26.67;51.73
3780;BME280;1905;52.482;9.802;2023-05-22T10:11:03;100868.06;;;26.70;51.84
3780;BME280;1905;52.482;9.802;2023-05-22T10:13:34;100868.56;;;26.66;50.80
3780;BME280;1905;52.482;9.802;2023-05-22T10:16:03;100864.34;;;26.71;51.42
3780;BME280;1905;52.482;9.802;2023-05-22T10:18:34;100865.16;;;26.72;51.32
3780;BME280;1905;52.482;9.802;2023-05-22T10:21:02;100859.06;;;26.70;51.99
3780;BME280;1905;52.482;9.802;2023-05-22T10:23:30;100863.16;;;26.66;50.96
3780;BME280;1905;52.482;9.802;2023-05-22T10:25:58;100861.78;;;26.70;51.60
3780;BME280;1905;52.482;9.802;2023-05-22T10:28:29;100855.03;;;26.66;50.79
3780;BME280;1905;52.482;9.802;2023-05-22T10:31:05;100844.66;;;26.69;51.69
3780;BME280;1905;52.482;9.802;2023-05-22T10:33:58;100834.69;;;26.70;51.59
3780;BME280;1905;52.482;9.802;2023-05-22T10:36:38;100838.91;;;26.64;50.27
3780;BME280;1905;52.482;9.802;2023-05-22T10:39:22;100834.69;;;26.70;51.46
3780;BME280;1905;52.482;9.802;2023-05-22T10:41:55;100826.56;;;26.70;51.62
3780;BME280;1905;52.482;9.802;2023-05-22T10:44:23;100827.06;;;26.73;51.73
3780;BME280;1905;52.482;9.802;2023-05-22T10:46:52;100835.88;;;26.75;51.62
3780;BME280;1905;52.482;9.802;2023-05-22T10:49:20;100836.97;;;26.82;51.99
3780;BME280;1905;52.482;9.802;2023-05-22T10:51:54;100828.97;;;26.81;51.71
3780;BME280;1905;52.482;9.802;2023-05-22T10:54:37;100829.31;;;26.78;51.42
3780;BME280;1905;52.482;9.802;2023-05-22T10:57:09;100837.59;;;26.76;50.58
3780;BME280;1905;52.482;9.802;2023-05-22T10:59:37;100829.94;;;26.72;51.01
3780;BME280;1905;52.482;9.802;2023-05-22T11:02:17;100827.63;;;26.85;50.54
3780;BME280;1905;52.482;9.802;2023-05-22T11:04:45;100827.31;;;26.88;51.45
3780;BME280;1905;52.482;9.802;2023-05-22T11:07:13;100831.88;;;26.95;50.99
3780;BME280;1905;52.482;9.802;2023-05-22T11:09:42;100832.38;;;26.99;50.87
3780;BME280;1905;52.482;9.802;2023-05-22T11:12:23;100824.22;;;27.07;51.25
3780;BME280;1905;52.482;9.802;2023-05-22T11:14:55;100825.59;;;27.11;51.05
3780;BME280;1905;52.482;9.802;2023-05-22T11:17:26;100813.41;;;27.15;51.13
3780;BME280;1905;52.482;9.802;2023-05-22T11:19:59;100807.97;;;27.23;50.87
3780;BME280;1905;52.482;9.802;2023-05-22T11:22:32;100815.06;;;27.32;50.16
3780;BME280;1905;52.482;9.802;2023-05-22T11:25:03;100804.38;;;27.39;49.40
3780;BME280;1905;52.482;9.802;2023-05-22T11:27:31;100805.25;;;27.47;50.20
3780;BME280;1905;52.482;9.802;2023-05-22T11:30:01;100803.19;;;27.57;50.69
3780;BME280;1905;52.482;9.802;2023-05-22T11:32:31;100810.31;;;27.58;49.34
3780;BME280;1905;52.482;9.802;2023-05-22T11:35:01;100808.09;;;27.62;49.59
3780;BME280;1905;52.482;9.802;2023-05-22T11:37:30;100806.53;;;27.67;49.55
3780;BME280;1905;52.482;9.802;2023-05-22T11:40:03;100800.09;;;27.76;50.48
3780;BME280;1905;52.482;9.802;2023-05-22T11:42:31;100795.31;;;27.78;49.51
3780;BME280;1905;52.482;9.802;2023-05-22T11:45:02;100802.06;;;27.91;50.49
3780;BME280;1905;52.482;9.802;2023-05-22T11:47:31;100794.75;;;27.91;50.34
3780;BME280;1905;52.482;9.802;2023-05-22T11:49:59;100785.78;;;27.91;48.90
3780;BME280;1905;52.482;9.802;2023-05-22T11:52:33;100775.75;;;27.91;51.00
3780;BME280;1905;52.482;9.802;2023-05-22T11:55:03;100788.16;;;27.94;50.10
3780;BME280;1905;52.482;9.802;2023-05-22T11:57:31;100784.69;;;28.00;50.68
3780;BME280;1905;52.482;9.802;2023-05-22T12:00:00;100780.47;;;27.97;49.89
3780;BME280;1905;52.482;9.802;2023-05-22T12:02:43;100776.56;;;28.00;50.41
3780;BME280;1905;52.482;9.802;2023-05-22T12:05:11;100773.84;;;28.00;50.97
3780;BME280;1905;52.482;9.802;2023-05-22T12:07:39;100764.69;;;28.01;50.84
3780;BME280;1905;52.482;9.802;2023-05-22T12:10:07;100768.75;;;27.97;49.75
3780;BME280;1905;52.482;9.802;2023-05-22T12:12:36;100769.59;;;27.97;49.55
3780;BME280;1905;52.482;9.802;2023-05-22T12:15:05;100769.25;;;28.00;49.60
3780;BME280;1905;52.482;9.802;2023-05-22T12:17:34;100767.94;;;28.04;50.10
3780;BME280;1905;52.482;9.802;2023-05-22T12:20:04;100773.81;;;28.08;50.70
3780;BME280;1905;52.482;9.802;2023-05-22T12:22:32;100769.09;;;28.10;50.44
3780;BME280;1905;52.482;9.802;2023-05-22T12:25:00;100768.72;;;28.13;50.72
3780;BME280;1905;52.482;9.802;2023-05-22T12:27:28;100768.72;;;28.13;49.92
3780;BME280;1905;52.482;9.802;2023-05-22T12:29:58;100772.13;;;28.15;50.70
3780;BME280;1905;52.482;9.802;2023-05-22T12:32:28;100759.53;;;28.14;50.67
3780;BME280;1905;52.482;9.802;2023-05-22T12:34:56;100763.75;;;28.16;48.36
3780;BME280;1905;52.482;9.802;2023-05-22T12:37:25;100764.25;;;28.20;50.33
3780;BME280;1905;52.482;9.802;2023-05-22T12:39:54;100761.84;;;28.25;50.61
3780;BME280;1905;52.482;9.802;2023-05-22T12:42:22;100755.72;;;28.31;50.72
3780;BME280;1905;52.482;9.802;2023-05-22T12:44:52;100742.44;;;28.36;50.34
3780;BME280;1905;52.482;9.802;2023-05-22T12:47:21;100760.06;;;28.40;50.24
3780;BME280;1905;52.482;9.802;2023-05-22T12:49:49;100754.25;;;28.43;49.87
3780;BME280;1905;52.482;9.802;2023-05-22T12:52:17;100755.59;;;28.47;49.25
3780;BME280;1905;52.482;9.802;2023-05-22T12:54:46;100745.03;;;28.52;50.53
3780;BME280;1905;52.482;9.802;2023-05-22T12:57:14;100749.44;;;28.53;49.51
3780;BME280;1905;52.482;9.802;2023-05-22T12:59:42;100749.72;;;28.66;50.83
3780;BME280;1905;52.482;9.802;2023-05-22T13:02:09;100744.22;;;28.74;50.85
3780;BME280;1905;52.482;9.802;2023-05-22T13:04:37;100745.84;;;28.83;50.45
3780;BME280;1905;52.482;9.802;2023-05-22T13:07:05;100742.44;;;28.81;49.76
3780;BME280;1905;52.482;9.802;2023-05-22T13:09:32;100751.88;;;28.93;50.39
3780;BME280;1905;52.482;9.802;2023-05-22T13:12:06;100748.88;;;29.03;50.38
3780;BME280;1905;52.482;9.802;2023-05-22T13:14:35;100742.91;;;29.08;49.59
3780;BME280;1905;52.482;9.802;2023-05-22T13:17:04;100740.91;;;29.16;50.31
3780;BME280;1905;52.482;9.802;2023-05-22T13:19:32;100733.91;;;29.22;49.84
3780;BME280;1905;52.482;9.802;2023-05-22T13:22:00;100738.53;;;29.36;49.95
3780;BME280;1905;52.482;9.802;2023-05-22T13:24:28;100739.22;;;29.38;50.10
3780;BME280;1905;52.482;9.802;2023-05-22T13:26:56;100734.03;;;29.43;49.67